Time;durP1;ratioP1;P1;durP2;ratioP2;P2;SDS_P1;SDS_P2;PMS_P1;PMS_P2;Temp;Humidity;BMP_temperature;BMP_pressure;BME280_temperature;BME280_humidity;BME280_pressure;Samples;Min_cycle;Max_cycle;Signal;HPM_P1;HPM_P2
2021/09/04 00:01:03;;;;;;;;;25.75;25.00;;;;;23.45;54.57;101255.53;5002401;28;45154;-59
2021/09/04 00:03:28;;;;;;;;;27.50;24.25;;;;;23.44;54.61;101257.38;5002430;28;45162;-59
2021/09/04 00:05:54;;;;;;;;;27.25;25.75;;;;;23.42;54.09;101254.00;5001932;28;46026;-59
2021/09/04 00:08:19;;;;;;;;;41.75;33.75;;;;;23.39;54.70;101262.41;5002411;28;45158;-58
2021/09/04 00:10:45;;;;;;;;;52.75;40.00;;;;;23.36;54.47;101258.19;5002257;28;45466;-59
2021/09/04 00:13:10;;;;;;;;;41.50;34.75;;;;;23.33;54.38;101266.56;5002452;28;45229;-59
2021/09/04 00:15:36;;;;;;;;;33.00;28.25;;;;;23.30;54.85;101252.59;5001951;28;45608;-59
2021/09/04 00:18:01;;;;;;;;;37.00;29.00;;;;;23.25;54.69;101246.88;5001989;28;45363;-59
2021/09/04 00:20:27;;;;;;;;;34.50;29.00;;;;;23.20;55.01;101260.78;5001886;28;45396;-59
2021/09/04 00:22:52;;;;;;;;;30.00;28.75;;;;;23.16;54.93;101253.22;5002276;28;45324;-59
2021/09/04 00:25:18;;;;;;;;;38.00;33.00;;;;;23.14;55.12;101256.03;5001822;28;46147;-59
2021/09/04 00:27:43;;;;;;;;;37.75;32.75;;;;;23.11;55.07;101257.22;5001832;28;45313;-59
2021/09/04 00:30:09;;;;;;;;;38.50;34.00;;;;;23.11;55.33;101251.00;5004089;28;45253;-59
2021/09/04 00:32:35;;;;;;;;;27.25;22.00;;;;;23.09;55.02;101256.53;5001844;28;45288;-59
2021/09/04 00:35:01;;;;;;;;;19.75;18.00;;;;;23.04;55.00;101245.41;5001679;28;45418;-59
2021/09/04 00:37:26;;;;;;;;;21.25;17.00;;;;;23.00;55.52;101248.59;5002113;28;45240;-59
2021/09/04 00:39:52;;;;;;;;;16.50;13.50;;;;;22.97;55.35;101240.84;5001583;28;45253;-59
2021/09/04 00:42:21;;;;;;;;;19.00;15.25;;;;;22.93;55.27;101237.66;5011041;28;45479;-59
2021/09/04 00:44:47;;;;;;;;;20.00;16.50;;;;;22.91;55.05;101250.41;5021409;28;45324;-59
2021/09/04 00:47:14;;;;;;;;;13.00;13.00;;;;;22.87;54.90;101234.75;5021496;28;45376;-59
2021/09/04 00:49:39;;;;;;;;;16.75;14.25;;;;;22.84;55.15;101234.03;5021311;28;45339;-59
2021/09/04 00:52:06;;;;;;;;;16.25;15.50;;;;;22.83;55.01;101244.94;5021539;28;45246;-58
2021/09/04 00:54:32;;;;;;;;;16.50;13.75;;;;;22.81;55.62;101241.56;5005013;28;45264;-59
2021/09/04 00:56:58;;;;;;;;;14.00;13.50;;;;;22.76;55.32;101234.00;5001529;28;45238;-59
2021/09/04 00:59:25;;;;;;;;;17.00;17.00;;;;;22.75;55.33;101234.13;5001509;28;45378;-58
2021/09/04 01:01:51;;;;;;;;;16.75;14.25;;;;;22.75;56.00;101242.19;5001670;28;45472;-59
2021/09/04 01:04:17;;;;;;;;;15.00;15.00;;;;;22.70;56.15;101234.63;5001222;28;46017;-59
2021/09/04 01:06:43;;;;;;;;;16.25;14.00;;;;;22.68;55.32;101239.31;5001342;28;45451;-58
2021/09/04 01:09:09;;;;;;;;;21.00;14.25;;;;;22.63;55.38;101232.72;5001381;28;45450;-59
2021/09/04 01:11:34;;;;;;;;;16.50;15.00;;;;;22.61;55.58;101235.56;5001531;28;45445;-59
2021/09/04 01:14:00;;;;;;;;;22.25;15.75;;;;;22.57;55.77;101231.50;5001165;28;45341;-58
2021/09/04 01:16:37;;;;;;;;;19.75;18.50;;;;;22.54;56.00;101229.13;5001331;28;45364;-59
2021/09/04 01:19:03;;;;;;;;;15.00;14.00;;;;;22.52;56.02;101233.81;5001118;28;45321;-58
2021/09/04 01:21:29;;;;;;;;;16.50;16.50;;;;;22.51;56.06;101230.28;5001154;28;45282;-58
2021/09/04 01:23:55;;;;;;;;;20.00;17.25;;;;;22.47;56.12;101231.59;5001062;28;45318;-59
2021/09/04 01:26:23;;;;;;;;;13.00;10.75;;;;;22.42;56.19;101228.53;5000624;28;45148;-59
2021/09/04 01:28:48;;;;;;;;;13.00;13.00;;;;;22.39;55.78;101226.16;5003786;28;45481;-60
2021/09/04 01:31:14;;;;;;;;;14.50;14.00;;;;;22.39;56.26;101231.53;5001241;28;45245;-59
2021/09/04 01:33:44;;;;;;;;;15.25;14.50;;;;;22.39;55.93;101226.16;5000647;28;45344;-59
2021/09/04 01:36:25;;;;;;;;;15.50;13.25;;;;;22.39;56.05;101225.31;5000930;28;45329;-59
2021/09/04 01:38:51;;;;;;;;;17.00;13.75;;;;;22.35;55.81;101229.28;5007594;28;45348;-58
2021/09/04 01:41:17;;;;;;;;;15.00;14.00;;;;;22.34;55.92;101222.25;5008317;28;45217;-59
2021/09/04 01:43:42;;;;;;;;;14.00;13.75;;;;;22.33;55.98;101228.63;5020811;28;46057;-58
2021/09/04 01:46:08;;;;;;;;;15.50;14.25;;;;;22.31;55.92;101220.72;5020651;28;45217;-58
2021/09/04 01:48:33;;;;;;;;;17.25;14.00;;;;;22.32;55.83;101226.94;5020489;28;45245;-58
2021/09/04 01:50:59;;;;;;;;;14.50;13.50;;;;;22.29;55.69;101220.88;5020608;28;45157;-58
2021/09/04 01:53:24;;;;;;;;;12.00;12.00;;;;;22.28;56.07;101229.09;5013673;28;45171;-58
2021/09/04 01:55:50;;;;;;;;;18.00;18.00;;;;;22.25;56.03;101221.34;5000875;28;45326;-58
2021/09/04 01:58:15;;;;;;;;;18.25;17.00;;;;;22.22;56.29;101229.72;5006222;28;45194;-59
2021/09/04 02:00:41;;;;;;;;;15.75;14.75;;;;;22.16;56.38;101223.13;5020725;28;45232;-59
2021/09/04 02:03:06;;;;;;;;;15.75;14.75;;;;;22.13;56.54;101225.28;5020218;28;45342;-58
2021/09/04 02:05:32;;;;;;;;;17.25;16.25;;;;;22.09;56.56;101226.56;5020437;28;45396;-59
2021/09/04 02:07:58;;;;;;;;;19.25;18.25;;;;;22.07;56.74;101229.38;5020586;28;45400;-58
2021/09/04 02:10:23;;;;;;;;;18.25;16.25;;;;;22.05;56.47;101223.31;5020634;28;45514;-58
2021/09/04 02:12:49;;;;;;;;;15.75;15.50;;;;;22.02;56.75;101228.97;5020224;28;45319;-59
2021/09/04 02:15:17;;;;;;;;;18.50;16.75;;;;;22.00;56.71;101225.63;5020225;28;45458;-59
2021/09/04 02:17:43;;;;;;;;;17.00;14.50;;;;;21.98;56.62;101224.94;5020227;28;45256;-59
2021/09/04 02:20:09;;;;;;;;;15.25;15.25;;;;;21.96;56.57;101225.09;5020029;28;45237;-59
2021/09/04 02:22:34;;;;;;;;;15.25;14.00;;;;;21.94;56.80;101226.22;5020250;28;45269;-59
2021/09/04 02:25:02;;;;;;;;;16.50;15.25;;;;;21.91;56.71;101224.69;5020418;28;45229;-58
2021/09/04 02:27:28;;;;;;;;;17.00;14.50;;;;;21.91;57.05;101213.13;5007286;28;45317;-59
2021/09/04 02:29:53;;;;;;;;;16.75;16.25;;;;;21.90;56.59;101214.13;5007029;28;45318;-58
2021/09/04 02:32:19;;;;;;;;;18.00;15.50;;;;;21.91;56.79;101213.97;5000108;28;46326;-59
2021/09/04 02:34:44;;;;;;;;;22.50;18.50;;;;;21.91;56.81;101221.19;5000261;28;45404;-58
2021/09/04 02:37:10;;;;;;;;;14.50;13.25;;;;;21.88;57.12;101219.66;5000468;28;45313;-59
2021/09/04 02:39:35;;;;;;;;;12.50;12.25;;;;;21.85;57.01;101211.88;5003055;28;45376;-59
2021/09/04 02:42:01;;;;;;;;;18.50;16.75;;;;;21.81;56.97;101223.94;5010090;28;46227;-59
2021/09/04 02:44:26;;;;;;;;;16.00;14.50;;;;;21.79;57.07;101222.38;5023525;28;45237;-58
2021/09/04 02:46:52;;;;;;;;;15.75;14.00;;;;;21.79;57.08;101222.38;5023632;28;45474;-59
2021/09/04 02:49:17;;;;;;;;;17.25;15.50;;;;;21.80;57.12;101224.91;5023308;28;45383;-59
2021/09/04 02:51:43;;;;;;;;;14.25;12.25;;;;;21.81;56.99;101221.25;5023111;28;45189;-58
2021/09/04 02:54:10;;;;;;;;;18.50;13.75;;;;;21.83;56.91;101219.25;5010477;28;45264;-58
2021/09/04 02:56:36;;;;;;;;;18.00;16.00;;;;;21.84;56.96;101222.78;5003662;28;45286;-59
2021/09/04 02:59:01;;;;;;;;;17.25;16.00;;;;;21.84;56.62;101214.72;5003363;28;45467;-59
2021/09/04 03:01:28;;;;;;;;;15.75;15.00;;;;;21.84;56.80;101215.56;5003187;28;45296;-58
2021/09/04 03:03:53;;;;;;;;;14.25;13.75;;;;;21.82;56.74;101214.03;5003072;28;45327;-58
2021/09/04 03:06:19;;;;;;;;;16.50;16.50;;;;;21.84;56.74;101218.25;5009903;28;45435;-59
2021/09/04 03:08:44;;;;;;;;;17.00;15.50;;;;;21.83;56.78;101221.09;5023258;28;45473;-59
2021/09/04 03:11:10;;;;;;;;;20.25;18.50;;;;;21.82;56.85;101217.56;5022970;28;45537;-58
2021/09/04 03:13:35;;;;;;;;;22.50;17.75;;;;;21.82;56.77;101219.41;5023091;28;45337;-59
2021/09/04 03:16:01;;;;;;;;;18.25;16.50;;;;;21.83;56.77;101219.25;5023306;28;45569;-59
2021/09/04 03:18:26;;;;;;;;;17.00;15.50;;;;;21.84;56.97;101220.94;5022929;28;45384;-59
2021/09/04 03:20:52;;;;;;;;;17.25;17.25;;;;;21.85;56.87;101216.41;5022793;28;45151;-58
2021/09/04 03:23:17;;;;;;;;;18.50;17.25;;;;;21.84;56.91;101212.88;5022877;28;45380;-58
2021/09/04 03:25:43;;;;;;;;;19.00;16.75;;;;;21.86;56.99;101218.94;5022981;28;45230;-58
2021/09/04 03:28:08;;;;;;;;;19.75;16.75;;;;;21.87;56.82;101217.09;5022573;28;45727;-58
2021/09/04 03:30:34;;;;;;;;;21.75;19.50;;;;;21.88;57.44;101211.59;5003331;28;45214;-58
2021/09/04 03:33:00;;;;;;;;;18.50;16.50;;;;;21.87;56.88;101217.09;5002736;28;45213;-58
2021/09/04 03:35:25;;;;;;;;;17.25;15.75;;;;;21.85;57.10;101211.88;5002764;28;45479;-59
2021/09/04 03:37:54;;;;;;;;;21.50;17.00;;;;;21.84;56.81;101212.88;5003095;28;45206;-58
2021/09/04 03:40:19;;;;;;;;;17.25;17.25;;;;;21.84;57.03;101215.56;5002564;28;45392;-58
2021/09/04 03:42:45;;;;;;;;;19.00;18.75;;;;;21.84;57.01;101212.03;5014189;28;45492;-58
2021/09/04 03:45:11;;;;;;;;;18.50;16.75;;;;;21.81;56.98;101213.22;5003413;28;45229;-59
2021/09/04 03:47:36;;;;;;;;;19.50;15.75;;;;;21.82;57.11;101225.63;5014028;28;45451;-58
2021/09/04 03:50:02;;;;;;;;;17.75;17.50;;;;;21.81;57.01;101215.03;5002606;28;45387;-58
2021/09/04 03:52:28;;;;;;;;;18.50;17.00;;;;;21.79;57.12;101222.38;5014694;28;45213;-59
2021/09/04 03:54:53;;;;;;;;;19.00;18.00;;;;;21.78;56.98;101221.53;5003175;28;45515;-58
2021/09/04 03:57:19;;;;;;;;;15.50;14.00;;;;;21.76;57.16;101220.00;5002733;28;45210;-58
2021/09/04 03:59:44;;;;;;;;;19.50;18.75;;;;;21.72;57.25;101217.66;5002262;28;45864;-59
2021/09/04 04:02:10;;;;;;;;;23.50;21.50;;;;;21.72;57.33;101214.09;5002332;28;45348;-58
2021/09/04 04:04:35;;;;;;;;;19.25;17.00;;;;;21.71;57.28;101207.88;5002399;28;45161;-59
2021/09/04 04:07:01;;;;;;;;;21.75;19.50;;;;;21.71;57.48;101207.88;5002386;28;45281;-59
2021/09/04 04:09:27;;;;;;;;;22.00;20.75;;;;;21.70;57.45;101206.22;5002132;28;45360;-59
2021/09/04 04:11:52;;;;;;;;;18.25;16.75;;;;;21.69;57.45;101201.00;5002429;28;45313;-58
2021/09/04 04:14:18;;;;;;;;;22.00;18.50;;;;;21.69;57.54;101203.69;5002301;28;45285;-59
2021/09/04 04:16:43;;;;;;;;;29.75;22.00;;;;;21.67;57.52;101200.31;5002387;28;45398;-58
2021/09/04 04:19:09;;;;;;;;;22.75;19.50;;;;;21.66;57.38;101202.16;5001716;28;46124;-61
2021/09/04 04:21:36;;;;;;;;;16.00;12.50;;;;;21.63;57.56;101202.44;5002007;28;45297;-59
2021/09/04 04:24:02;;;;;;;;;18.50;18.50;;;;;21.61;57.71;101203.59;5002163;28;45411;-59
2021/09/04 04:26:27;;;;;;;;;21.00;16.75;;;;;21.57;57.73;101202.22;5002149;28;45641;-59
2021/09/04 04:28:53;;;;;;;;;19.50;18.00;;;;;21.55;57.92;101210.41;5003985;28;45974;-58
2021/09/04 04:31:18;;;;;;;;;23.75;19.75;;;;;21.54;57.88;101199.81;5002003;28;45197;-58
2021/09/04 04:33:44;;;;;;;;;19.75;19.00;;;;;21.53;57.95;101209.72;5001767;28;45304;-58
2021/09/04 04:36:09;;;;;;;;;21.25;21.25;;;;;21.51;58.07;101203.66;5001875;28;45443;-58
2021/09/04 04:38:35;;;;;;;;;22.75;21.25;;;;;21.51;58.11;101206.34;5001610;28;45230;-58
2021/09/04 04:41:02;;;;;;;;;23.50;20.25;;;;;21.50;58.26;101201.13;5001748;28;45270;-58
2021/09/04 04:43:27;;;;;;;;;21.00;19.00;;;;;21.51;58.27;101202.81;5020437;28;45522;-58
2021/09/04 04:45:53;;;;;;;;;21.25;19.50;;;;;21.51;58.19;101197.47;5021915;28;45265;-59
2021/09/04 04:48:20;;;;;;;;;23.00;20.00;;;;;21.53;58.48;101198.16;5020921;28;45396;-58
2021/09/04 04:50:45;;;;;;;;;20.00;18.75;;;;;21.54;58.57;101197.16;5021398;28;45349;-58
2021/09/04 04:53:12;;;;;;;;;22.00;20.50;;;;;21.55;58.39;101204.19;5015917;28;45479;-58
2021/09/04 04:55:37;;;;;;;;;19.75;18.50;;;;;21.55;58.51;101201.50;5001722;28;45241;-59
2021/09/04 04:58:03;;;;;;;;;21.00;19.50;;;;;21.54;58.49;101200.66;5001520;28;45463;-58
2021/09/04 05:00:28;;;;;;;;;17.75;17.50;;;;;21.55;58.47;101201.50;5000885;28;45317;-59
2021/09/04 05:02:54;;;;;;;;;19.00;17.75;;;;;21.51;58.34;101195.63;5001079;28;45225;-58
2021/09/04 05:05:20;;;;;;;;;23.25;19.75;;;;;21.48;58.48;101203.94;5001531;28;45222;-59
2021/09/04 05:07:45;;;;;;;;;18.75;18.75;;;;;21.49;58.65;101202.09;5001175;28;45341;-59
2021/09/04 05:10:11;;;;;;;;;21.25;21.25;;;;;21.49;58.78;101207.47;5001505;28;45161;-59
2021/09/04 05:12:37;;;;;;;;;23.50;19.00;;;;;21.49;58.57;101213.69;5001514;28;45420;-58
2021/09/04 05:15:03;;;;;;;;;19.50;19.25;;;;;21.49;58.63;101211.03;5001501;28;45661;-58
2021/09/04 05:17:29;;;;;;;;;24.25;19.50;;;;;21.52;58.84;101220.59;5000794;28;45458;-58
2021/09/04 05:19:54;;;;;;;;;20.75;20.75;;;;;21.51;58.71;101219.75;5001099;28;45370;-58
2021/09/04 05:22:20;;;;;;;;;21.25;21.00;;;;;21.54;58.85;101215.91;5001358;28;45494;-58
2021/09/04 05:24:45;;;;;;;;;20.25;18.50;;;;;21.54;58.85;101221.28;5001334;28;45402;-58
2021/09/04 05:27:11;;;;;;;;;21.00;18.75;;;;;21.54;58.81;101221.28;5001050;28;45973;-59
2021/09/04 05:29:37;;;;;;;;;20.50;18.50;;;;;21.54;58.94;101227.47;5002342;28;45331;-58
2021/09/04 05:32:04;;;;;;;;;23.25;20.00;;;;;21.54;59.02;101227.47;5000952;28;45281;-58
2021/09/04 05:34:30;;;;;;;;;23.75;21.75;;;;;21.54;59.18;101232.00;5001250;28;45138;-58
2021/09/04 05:36:55;;;;;;;;;18.00;17.75;;;;;21.52;59.11;101223.28;5000765;28;45453;-59
2021/09/04 05:39:21;;;;;;;;;24.50;20.00;;;;;21.52;59.12;101231.31;5001092;28;45276;-59
2021/09/04 05:41:47;;;;;;;;;24.25;19.50;;;;;21.49;59.06;101234.28;5006051;28;45259;-59
2021/09/04 05:44:12;;;;;;;;;22.50;21.00;;;;;21.47;59.13;101239.78;5021109;28;45481;-59
2021/09/04 05:46:38;;;;;;;;;24.50;21.75;;;;;21.46;59.15;101230.91;5001436;28;45544;-59
2021/09/04 05:49:03;;;;;;;;;24.50;20.75;;;;;21.49;59.04;101228.91;5012108;28;45462;-59
2021/09/04 05:51:29;;;;;;;;;22.25;21.25;;;;;21.46;59.23;101232.75;5020558;28;45348;-59
2021/09/04 05:53:54;;;;;;;;;22.00;18.75;;;;;21.46;59.29;101230.06;5009592;28;45499;-59
2021/09/04 05:56:20;;;;;;;;;18.75;18.25;;;;;21.43;59.51;101228.53;5000672;28;46090;-59
2021/09/04 05:58:46;;;;;;;;;22.00;21.00;;;;;21.45;59.63;101234.59;5000790;28;45345;-59
2021/09/04 06:01:11;;;;;;;;;25.00;22.25;;;;;21.45;59.64;101231.91;5000853;28;45333;-59
2021/09/04 06:03:37;;;;;;;;;26.50;21.25;;;;;21.49;59.57;101239.63;5000797;28;45415;-59
2021/09/04 06:06:03;;;;;;;;;25.00;20.25;;;;;21.49;59.69;101234.28;5000351;28;45316;-59
2021/09/04 06:08:29;;;;;;;;;28.50;23.25;;;;;21.49;59.58;101243.19;5000508;28;45262;-59
2021/09/04 06:10:54;;;;;;;;;24.50;21.00;;;;;21.48;59.69;101243.31;5000597;28;45277;-59
2021/09/04 06:13:20;;;;;;;;;26.75;22.00;;;;;21.48;59.54;101243.31;5003141;28;45314;-59
2021/09/04 06:15:45;;;;;;;;;30.00;25.50;;;;;21.49;59.77;101245.88;5003982;28;46631;-59
2021/09/04 06:18:12;;;;;;;;;25.25;22.75;;;;;21.48;59.62;101246.00;5003746;28;45681;-59
2021/09/04 06:20:37;;;;;;;;;25.25;22.25;;;;;21.45;59.75;101245.31;5003807;28;45344;-59
2021/09/04 06:23:03;;;;;;;;;27.75;23.75;;;;;21.48;59.85;101252.19;5004164;28;45487;-59
2021/09/04 06:25:29;;;;;;;;;25.50;21.00;;;;;21.49;59.89;101251.22;5003741;28;46012;-59
2021/09/04 06:27:54;;;;;;;;;28.00;21.00;;;;;21.51;60.15;101251.06;5003758;28;45332;-59
2021/09/04 06:30:20;;;;;;;;;22.25;20.00;;;;;21.51;60.65;101251.06;5006292;28;45341;-59
2021/09/04 06:32:45;;;;;;;;;25.75;24.00;;;;;21.53;60.77;101259.81;5003727;28;45601;-59
2021/09/04 06:35:11;;;;;;;;;24.25;23.00;;;;;21.53;61.28;101252.59;5003493;28;45876;-59
2021/09/04 06:37:37;;;;;;;;;24.00;22.75;;;;;21.53;61.13;101260.66;5003757;28;45265;-59
2021/09/04 06:40:04;;;;;;;;;28.00;24.75;;;;;21.51;61.43;101253.75;5003311;28;45201;-59
2021/09/04 06:42:29;;;;;;;;;25.50;24.50;;;;;21.46;61.80;101252.34;5013366;28;45652;-59
2021/09/04 06:44:55;;;;;;;;;33.50;26.50;;;;;21.46;62.13;101262.22;5006218;28;45411;-59
2021/09/04 06:47:20;;;;;;;;;24.50;21.25;;;;;21.47;62.71;101261.22;5003585;28;45247;-58
2021/09/04 06:49:46;;;;;;;;;29.50;25.75;;;;;21.48;63.04;101262.06;5003532;28;45210;-59
2021/09/04 06:52:11;;;;;;;;;30.75;27.00;;;;;21.48;63.02;101260.25;5013783;28;45458;-59
2021/09/04 06:54:37;;;;;;;;;37.25;28.25;;;;;21.49;63.08;101269.13;5006292;28;45955;-59
2021/09/04 06:57:03;;;;;;;;;28.75;26.50;;;;;21.48;63.09;101262.06;5012206;28;45351;-59
2021/09/04 06:59:29;;;;;;;;;26.75;26.25;;;;;21.46;63.16;101263.06;5006175;28;45374;-58
2021/09/04 07:01:55;;;;;;;;;28.50;26.75;;;;;21.48;63.17;101256.72;5003451;28;45411;-58
2021/09/04 07:04:20;;;;;;;;;28.75;28.25;;;;;21.47;63.15;101247.84;5002983;28;46051;-58
2021/09/04 07:06:46;;;;;;;;;32.25;28.00;;;;;21.51;63.27;101251.91;5003372;28;45396;-58
2021/09/04 07:09:11;;;;;;;;;31.50;29.50;;;;;21.52;63.28;101250.06;5003338;28;45308;-58
2021/09/04 07:11:37;;;;;;;;;30.50;26.25;;;;;21.53;63.45;101246.41;5003499;28;45245;-58
2021/09/04 07:14:04;;;;;;;;;29.25;25.75;;;;;21.53;63.20;101254.44;5002943;28;45886;-58
2021/09/04 07:16:29;;;;;;;;;33.50;27.25;;;;;21.54;63.58;101258.81;5003214;28;45376;-58
2021/09/04 07:18:55;;;;;;;;;34.75;29.50;;;;;21.56;63.60;101254.13;5002958;28;45299;-58
2021/09/04 07:21:21;;;;;;;;;36.25;29.50;;;;;21.55;63.36;101249.75;5002997;28;45242;-58
2021/09/04 07:23:46;;;;;;;;;34.75;29.75;;;;;21.55;64.01;101253.28;5002205;28;45549;-58
2021/09/04 07:26:12;;;;;;;;;33.50;30.00;;;;;21.55;64.38;101247.94;5002985;28;45337;-58
2021/09/04 07:28:37;;;;;;;;;35.75;31.75;;;;;21.53;64.80;101252.59;5004459;28;45384;-59
2021/09/04 07:31:03;;;;;;;;;34.25;30.00;;;;;21.49;64.92;101250.34;5003020;28;45321;-59
2021/09/04 07:33:29;;;;;;;;;32.75;29.75;;;;;21.43;65.12;101257.19;5002616;28;45385;-58
2021/09/04 07:35:55;;;;;;;;;44.50;33.00;;;;;21.40;65.88;101257.44;5002720;28;45377;-59
2021/09/04 07:38:20;;;;;;;;;37.50;31.50;;;;;21.38;67.00;101257.63;5002625;28;45339;-59
2021/09/04 07:40:46;;;;;;;;;37.25;32.00;;;;;21.39;67.01;101263.81;5002767;28;45574;-59
2021/09/04 07:43:13;;;;;;;;;37.75;32.50;;;;;21.40;67.39;101263.66;5019558;28;45326;-59
2021/09/04 07:45:40;;;;;;;;;37.50;33.00;;;;;21.36;67.43;101266.81;5022576;28;45246;-59
2021/09/04 07:48:06;;;;;;;;;33.75;29.75;;;;;21.33;67.82;101261.72;5022217;28;45303;-59
2021/09/04 07:50:33;;;;;;;;;36.50;30.25;;;;;21.33;68.50;101267.06;5022272;28;45537;-59
2021/09/04 07:52:58;;;;;;;;;37.75;33.00;;;;;21.37;68.54;101265.81;5018860;28;45483;-59
2021/09/04 07:55:24;;;;;;;;;40.00;34.75;;;;;21.42;68.80;101271.56;5002573;28;45437;-59
2021/09/04 07:57:50;;;;;;;;;34.00;30.00;;;;;21.43;68.18;101267.91;5002650;28;45402;-59
2021/09/04 08:00:15;;;;;;;;;39.75;33.75;;;;;21.45;68.27;101269.44;5002490;28;45456;-59
2021/09/04 08:02:41;;;;;;;;;39.50;31.75;;;;;21.53;69.04;101273.22;5002039;28;46176;-59
2021/09/04 08:05:08;;;;;;;;;37.50;32.75;;;;;21.57;69.13;101264.72;5002344;28;45241;-59
2021/09/04 08:07:33;;;;;;;;;40.25;32.00;;;;;21.65;69.25;101266.66;5002370;28;45336;-59
2021/09/04 08:09:59;;;;;;;;;48.00;36.50;;;;;21.72;69.37;101268.59;5002386;28;45463;-59
2021/09/04 08:12:24;;;;;;;;;47.50;36.25;;;;;21.83;69.13;101272.91;5002335;28;45451;-59
2021/09/04 08:14:50;;;;;;;;;49.00;39.00;;;;;21.90;68.28;101276.66;5002231;28;45215;-59
2021/09/04 08:17:16;;;;;;;;;41.00;35.00;;;;;22.00;68.57;101265.84;5001986;28;45159;-59
2021/09/04 08:19:42;;;;;;;;;46.75;37.25;;;;;22.11;68.56;101276.38;5002328;28;45311;-59
2021/09/04 08:22:08;;;;;;;;;44.25;36.00;;;;;22.18;68.59;101269.41;5001747;28;45318;-59
2021/09/04 08:24:33;;;;;;;;;48.00;38.75;;;;;22.26;68.24;101268.66;5002154;28;45455;-59
2021/09/04 08:27:00;;;;;;;;;45.00;35.00;;;;;22.29;67.74;101268.34;5002052;28;45292;-59
2021/09/04 08:29:26;;;;;;;;;46.25;37.75;;;;;22.33;67.96;101272.41;5003986;28;45425;-59
2021/09/04 08:31:52;;;;;;;;;43.25;34.75;;;;;22.39;68.22;101263.75;5001827;28;45969;-59
2021/09/04 08:34:17;;;;;;;;;45.50;36.50;;;;;22.43;68.19;101277.69;5001724;28;45375;-59
2021/09/04 08:36:43;;;;;;;;;45.75;36.75;;;;;22.49;68.39;101274.38;5000693;28;45486;-59
2021/09/04 08:39:09;;;;;;;;;42.25;35.50;;;;;22.56;67.64;101284.34;5001958;28;45431;-59
2021/09/04 08:41:36;;;;;;;;;46.00;38.75;;;;;22.66;67.04;101291.47;5004667;28;45424;-59
2021/09/04 08:44:03;;;;;;;;;47.75;39.00;;;;;22.74;66.95;101289.69;5021789;28;45327;-59
2021/09/04 08:46:33;;;;;;;;;46.50;37.75;;;;;22.85;66.32;101288.63;5020395;28;45352;-59
2021/09/04 08:49:00;;;;;;;;;49.25;39.75;;;;;22.98;67.22;101290.88;5021535;28;45394;-59
2021/09/04 08:51:26;;;;;;;;;49.50;39.75;;;;;23.05;66.85;101297.31;5021209;28;46101;-59
2021/09/04 08:53:51;;;;;;;;;44.25;37.50;;;;;23.08;66.87;101297.88;5011182;28;45245;-59
2021/09/04 08:56:17;;;;;;;;;48.75;38.50;;;;;23.10;66.88;101298.53;5001589;28;45388;-59
2021/09/04 08:58:42;;;;;;;;;48.50;40.00;;;;;23.12;66.27;101304.59;5001636;28;45326;-59
2021/09/04 09:01:44;;;;;;;;;50.50;40.75;;;;;23.19;66.81;101303.97;5001396;28;46051;-59
2021/09/04 09:04:14;;;;;;;;;49.25;39.50;;;;;23.22;66.69;101295.56;5001056;28;45463;-57
2021/09/04 09:06:40;;;;;;;;;48.50;39.50;;;;;23.26;66.37;101300.47;5001450;28;45339;-58
2021/09/04 09:09:16;;;;;;;;;40.25;33.25;;;;;23.31;65.49;101302.69;5001488;28;45328;-58
2021/09/04 09:11:41;;;;;;;;;45.75;38.75;;;;;23.36;65.74;101297.66;5001279;28;45279;-58
2021/09/04 09:14:07;;;;;;;;;42.50;36.00;;;;;23.46;65.63;101305.59;5001324;28;45369;-59
2021/09/04 09:16:32;;;;;;;;;40.25;34.25;;;;;23.50;65.68;101310.50;5001435;28;45499;-58
2021/09/04 09:19:02;;;;;;;;;42.25;34.00;;;;;23.54;66.08;101309.19;5001183;28;45372;-58
2021/09/04 09:21:32;;;;;;;;;41.00;36.25;;;;;23.62;66.08;101305.69;5001023;28;46106;-58
2021/09/04 09:24:13;;;;;;;;;36.75;31.50;;;;;23.73;65.67;101309.97;5001106;28;45247;-58
2021/09/04 09:26:52;;;;;;;;;42.75;33.25;;;;;23.80;65.67;101308.31;5001380;28;45281;-58
2021/09/04 09:29:20;;;;;;;;;40.75;31.75;;;;;23.91;65.55;101305.31;5004560;28;45404;-58
2021/09/04 09:31:46;;;;;;;;;32.25;31.00;;;;;24.06;65.22;101317.13;5000820;28;45505;-59
2021/09/04 09:34:13;;;;;;;;;37.00;33.00;;;;;24.18;64.60;101313.13;5000945;28;45340;-58
2021/09/04 09:37:05;;;;;;;;;34.25;32.25;;;;;24.27;63.97;101308.59;5001030;28;45347;-59
2021/09/04 09:39:37;;;;;;;;;38.25;29.25;;;;;24.36;64.89;101301.41;4999827;28;45473;-58
2021/09/04 09:42:05;;;;;;;;;34.50;31.75;;;;;24.45;64.10;101306.63;5019287;28;45359;-58
2021/09/04 09:44:33;;;;;;;;;33.00;31.25;;;;;24.50;63.31;101303.44;5020561;28;45281;-59
2021/09/04 09:47:00;;;;;;;;;32.75;31.00;;;;;24.52;63.58;101304.09;5021137;28;45324;-58
2021/09/04 09:49:37;;;;;;;;;34.50;31.75;;;;;24.56;62.94;101302.75;5024467;28;45424;-58
2021/09/04 09:52:04;;;;;;;;;39.25;32.50;;;;;24.68;63.02;101301.41;5023958;28;45377;-59
2021/09/04 09:54:32;;;;;;;;;36.50;32.00;;;;;24.77;62.60;101292.28;5008518;28;45228;-58
2021/09/04 09:56:59;;;;;;;;;35.25;30.75;;;;;24.82;62.08;101299.03;5004854;28;45396;-58
2021/09/04 09:59:28;;;;;;;;;32.75;28.50;;;;;24.81;62.39;101295.50;5004381;28;45556;-59
2021/09/04 10:02:05;;;;;;;;;36.25;29.75;;;;;24.83;61.83;101298.03;5003792;28;46073;-58
2021/09/04 10:04:33;;;;;;;;;32.50;29.75;;;;;24.82;62.13;101289.09;5004222;28;45342;-58
2021/09/04 10:07:01;;;;;;;;;28.75;28.00;;;;;24.83;62.45;101289.94;5004087;28;45320;-58
2021/09/04 10:09:28;;;;;;;;;35.50;28.50;;;;;24.86;61.73;101292.28;5004157;28;45527;-59
2021/09/04 10:11:53;;;;;;;;;38.25;30.50;;;;;24.92;62.09;101294.31;5003964;28;45526;-58
2021/09/04 10:14:20;;;;;;;;;28.50;27.25;;;;;25.01;61.38;101290.56;5004019;28;45195;-58
2021/09/04 10:16:48;;;;;;;;;30.00;28.50;;;;;25.04;61.46;101293.81;5004352;28;45248;-59
2021/09/04 10:19:17;;;;;;;;;31.75;29.75;;;;;25.08;61.25;101288.06;5003617;28;45320;-58
2021/09/04 10:21:42;;;;;;;;;27.25;24.25;;;;;25.13;61.16;101288.41;5003735;28;45359;-58
2021/09/04 10:24:09;;;;;;;;;36.50;32.50;;;;;25.17;60.41;101292.44;5010421;28;45302;-59
2021/09/04 10:26:35;;;;;;;;;26.75;24.25;;;;;25.16;60.56;101285.34;5024103;28;45326;-58
2021/09/04 10:29:09;;;;;;;;;32.00;28.50;;;;;25.14;60.85;101287.38;5016951;28;45194;-58
2021/09/04 10:31:48;;;;;;;;;30.00;26.50;;;;;25.12;60.45;101287.56;5003669;28;45997;-59
2021/09/04 10:34:23;;;;;;;;;24.75;23.25;;;;;25.12;60.40;101286.69;5003884;28;45391;-59
2021/09/04 10:37:07;;;;;;;;;28.75;27.75;;;;;25.15;59.56;101289.06;5003689;28;45240;-58
2021/09/04 10:39:50;;;;;;;;;26.50;22.50;;;;;25.18;59.66;101288.72;5003884;28;45501;-59
2021/09/04 10:42:25;;;;;;;;;29.50;25.75;;;;;25.19;59.73;101288.53;5012338;28;46547;-58
2021/09/04 10:45:06;;;;;;;;;23.25;23.25;;;;;25.25;59.83;101293.25;5023474;28;45317;-58
2021/09/04 10:47:51;;;;;;;;;30.75;27.75;;;;;25.29;59.81;101285.66;5023315;28;45316;-58
2021/09/04 10:50:25;;;;;;;;;37.25;30.00;;;;;25.29;59.33;101281.09;5023526;28;45451;-58
2021/09/04 10:52:50;;;;;;;;;36.00;31.00;;;;;25.32;59.56;101283.44;5021213;28;45318;-58
2021/09/04 10:55:27;;;;;;;;;37.25;33.25;;;;;25.34;59.13;101280.56;5003497;28;45349;-59
2021/09/04 10:58:05;;;;;;;;;37.50;31.25;;;;;25.37;59.01;101279.41;5003465;28;45218;-59
2021/09/04 11:00:42;;;;;;;;;34.50;31.50;;;;;25.48;59.15;101287.09;5002648;28;45294;-59
2021/09/04 11:03:12;;;;;;;;;32.50;31.00;;;;;25.65;58.89;101288.69;5009985;28;45353;-58
2021/09/04 11:05:59;;;;;;;;;24.25;21.50;;;;;25.75;58.27;101289.38;5022939;28;45291;-61
2021/09/04 11:08:33;;;;;;;;;32.00;29.50;;;;;25.91;58.50;101277.66;5023054;28;45210;-59